Aérodrome :
LOGIN :

S'inscrire | Disclaimer

   EN    FR    IT 

 










Légende :    VFR   VFR Marginal   IFR   IFR Intensif   IFR Très Intensif
Visi : 
Plafond : 
>= 8 km
>= 3000ft
5 à 8 km
1000 à 3000 ft
1500m à 5 km
500 à 1000 ft
800 à 1500m
200 à 500 ft
< 800m
< 200 ft
Symboles :   Orages  Brouillard  Fortes neiges  Fortes précipitations  Vent > 20 kt
SIGMETs :   Divers  Orages  Givrage  Turbulence  Onde Orograph.  Cendres Volcan.






- Altitude de l'aérodrome : 1115 ft
- Code IATA : GRZ


LOWG - Graz

DERNIER METAR :
  • 011320Z VRB02KT 9999 -SHRA FEW005 SCT025 FEW040CB BKN070 19/18 Q1006 NOSIG

METARs EXPIRÉS :
  • 011250Z 33004KT 290V030 9999 -SHRA FEW005 SCT025 FEW040CB BKN070 18/17 Q1006 RETSRA NOSIG
  • 011220Z VRB05KT 6000 TSRA SCT011 SCT018 FEW020CB BKN040 18/17 Q1007 TEMPO -SHRA
  • 011150Z 26004KT 230V300 8000 TSRA FEW011 SCT014 BKN020 FEW025CB 20/18 Q1007 TEMPO 4000 +TSRA
  • 011120Z 26003KT 9999 TSRA FEW015 SCT020 FEW040CB BKN045 20/18 Q1006 TEMPO +TSRA
  • 011050Z VRB01KT 9999 -SHRA FEW012 SCT020 FEW040CB BKN045 21/18 Q1005 TEMPO TSRA

TAF TAF LOWG
Valide du 01 à 12h jusqu'au 02 à 12h UTC


011115Z 0112/0212 VRB05KT 9999 BKN040 TX24/0113Z TN16/0204Z
TEMPO 0112/0212 -SHRA SCT015 FEW040CB BKN045
TEMPO 0112/0122 VRB15G25KT 3000 +SHRA +TSRA SCT030CB BKN040
TEMPO 0122/0204 SHRA SCT040CB BKN050



MET'MAP, la Météo Aéronautique d'un coup d'oeil ! - Copyright ORBIFLY Décembre 2007 - Disclaimer

ORBIFLY MET'MAP TEAM :

Programmation & Développement : Alexandra Zaïnal
Sur une idée originale de : Baudouin d'Aumeries
Assistance à la programmation : Marc-Olivier Méhu
Soutien technique & logistique : Manuel Goepfert

Contact : metmap@orbifly.com




SOURCES & CREDITS :

   NOAA